Time;durP1;ratioP1;P1;durP2;ratioP2;P2;SDS_P1;SDS_P2;PMS_P1;PMS_P2;Temp;Humidity;BMP_temperature;BMP_pressure;BME280_temperature;BME280_humidity;BME280_pressure;Samples;Min_cycle;Max_cycle;Signal;HPM_P1;HPM_P2
2022/05/03 00:03:09;;;;;;;4.35;2.85;;;;;;;7.94;98.12;100643.00;10376313;28;20089;-79
2022/05/03 00:08:27;;;;;;;4.13;2.40;;;;;;;7.97;97.89;100640.06;10375402;28;20084;-79
2022/05/03 00:13:35;;;;;;;4.07;2.55;;;;;;;7.82;96.35;100631.75;10373310;28;20089;-78
2022/05/03 00:18:35;;;;;;;5.15;2.53;;;;;;;6.99;97.46;100503.78;10356945;28;20045;-78
2022/05/03 00:23:37;;;;;;;6.95;2.78;;;;;;;7.35;97.68;100580.63;10372914;28;20049;-79
2022/05/03 00:28:39;;;;;;;6.05;3.15;;;;;;;7.56;98.74;100634.16;10373773;28;20037;-79
2022/05/03 00:33:41;;;;;;;5.22;3.30;;;;;;;6.60;97.87;100472.94;10372478;28;20137;-79
2022/05/03 00:38:42;;;;;;;9.38;3.30;;;;;;;7.51;98.28;100617.91;10373401;28;20049;-78
2022/05/03 00:44:55;;;;;;;5.93;3.22;;;;;;;7.52;100.00;100609.81;10373870;28;20053;-78
2022/05/03 00:49:43;;;;;;;5.40;3.42;;;;;;;6.66;100.00;100471.56;10372158;28;20045;-79
2022/05/03 00:54:56;;;;;;;7.15;3.85;;;;;;;7.47;99.50;100612.03;10372930;28;20144;-80
2022/05/03 01:00:12;;;;;;;7.00;3.90;;;;;;;7.51;100.00;100609.97;10373405;28;20080;-79
2022/05/03 01:05:19;;;;;;;9.63;3.42;;;;;;;7.51;99.96;100599.41;10372679;28;20044;-80
2022/05/03 01:10:26;;;;;;;5.38;3.50;;;;;;;6.94;100.00;100501.56;10373085;28;20494;-78
2022/05/03 01:15:30;;;;;;;6.57;3.78;;;;;;;7.45;100.00;100584.94;10372733;28;20057;-79
2022/05/03 01:21:11;;;;;;;5.75;3.47;;;;;;;7.68;100.00;100608.38;10372503;28;20052;-78
2022/05/03 01:26:54;;;;;;;4.97;3.25;;;;;;;7.50;100.00;100572.09;10371782;28;20045;-79
2022/05/03 01:32:01;;;;;;;4.95;3.40;;;;;;;7.75;99.89;100602.41;10372884;28;20046;-79
2022/05/03 01:37:43;;;;;;;6.78;3.88;;;;;;;7.72;99.99;100592.09;10371147;28;20049;-79
2022/05/03 01:42:50;;;;;;;6.22;3.72;;;;;;;7.65;100.00;100592.81;10207127;29;20129;-79
2022/05/03 01:48:08;;;;;;;9.13;4.00;;;;;;;7.59;100.00;100591.56;10337724;28;20125;-78
2022/05/03 01:53:19;;;;;;;6.43;3.97;;;;;;;7.51;100.00;100586.19;10371941;28;20049;-79
2022/05/03 01:58:40;;;;;;;7.55;4.13;;;;;;;7.48;100.00;100587.28;10371724;28;20034;-79
2022/05/03 02:03:53;;;;;;;6.80;3.95;;;;;;;7.41;100.00;100583.53;10372732;28;20510;-78
2022/05/03 02:09:04;;;;;;;5.17;3.90;;;;;;;7.43;100.00;100586.03;10379939;28;20048;-79
2022/05/03 02:19:49;;;;;;;10.13;4.90;;;;;;;7.45;100.00;100594.66;10380508;28;20441;-79
2022/05/03 02:25:17;;;;;;;9.23;5.53;;;;;;;7.38;100.00;100588.28;10378535;28;20049;-78
2022/05/03 02:30:19;;;;;;;7.25;5.20;;;;;;;7.23;100.00;100578.13;10371246;28;20061;-79
2022/05/03 02:35:21;;;;;;;8.25;5.18;;;;;;;7.28;100.00;100567.16;10378105;28;20053;-78
2022/05/03 02:40:27;;;;;;;7.35;5.32;;;;;;;7.43;100.00;100588.69;10378044;28;20511;-79
2022/05/03 02:45:33;;;;;;;5.88;4.90;;;;;;;7.11;100.00;100521.13;10378997;28;20045;-79
2022/05/03 02:51:01;;;;;;;7.05;5.00;;;;;;;7.58;100.00;100594.38;10378213;28;20036;-79
2022/05/03 02:56:11;;;;;;;8.30;5.40;;;;;;;7.49;100.00;100590.75;10378069;28;20046;-79
2022/05/03 03:01:49;;;;;;;8.50;5.72;;;;;;;7.56;100.00;100597.13;10377351;28;20080;-79
2022/05/03 03:06:54;;;;;;;6.47;5.13;;;;;;;7.52;100.00;100599.22;10378005;28;20179;-79
2022/05/03 03:12:20;;;;;;;6.97;5.45;;;;;;;7.40;100.00;100599.53;10377226;28;20046;-79
2022/05/03 03:17:28;;;;;;;7.20;5.20;;;;;;;6.79;100.00;100480.03;10376816;28;20037;-78
2022/05/03 03:22:31;;;;;;;9.05;5.35;;;;;;;6.52;100.00;100429.72;10373428;28;20041;-79
2022/05/03 03:27:32;;;;;;;7.75;5.43;;;;;;;7.19;100.00;100537.13;10359195;28;20046;-79
2022/05/03 03:32:38;;;;;;;6.90;4.95;;;;;;;7.32;100.00;100566.72;10376110;28;20037;-78
2022/05/03 03:37:44;;;;;;;8.45;5.40;;;;;;;7.26;100.00;100554.06;10367638;28;20132;-78
2022/05/03 03:42:46;;;;;;;8.40;5.05;;;;;;;7.49;100.00;100580.19;10335973;28;20208;-79
2022/05/03 03:47:48;;;;;;;6.10;4.95;;;;;;;7.70;100.00;100601.97;10334683;28;20038;-79
2022/05/03 03:52:49;;;;;;;6.90;4.72;;;;;;;7.69;100.00;100581.00;10335300;28;20047;-78
2022/05/03 03:57:50;;;;;;;7.45;5.25;;;;;;;7.72;100.00;100594.75;10334531;28;20065;-79
2022/05/03 04:02:52;;;;;;;9.90;5.28;;;;;;;7.38;100.00;100520.38;10367035;28;20122;-77
2022/05/03 04:07:53;;;;;;;12.00;4.75;;;;;;;7.25;100.00;100488.16;10361311;28;20033;-77
2022/05/03 04:12:54;;;;;;;5.95;4.28;;;;;;;8.10;99.88;100613.28;10351866;28;20081;-78
2022/05/03 04:17:55;;;;;;;7.60;4.20;;;;;;;7.11;98.40;100430.47;10351433;28;20046;-79
2022/05/03 04:22:56;;;;;;;6.10;4.20;;;;;;;8.04;98.23;100568.88;10333606;28;20093;-78
2022/05/03 04:27:56;;;;;;;6.72;4.07;;;;;;;8.21;98.76;100592.75;10315451;28;20054;-77
2022/05/03 04:32:57;;;;;;;5.93;4.00;;;;;;;8.38;98.31;100606.19;10326880;28;20101;-78
2022/05/03 04:37:58;;;;;;;5.13;3.80;;;;;;;8.17;97.87;100562.28;10293188;28;20116;-78
2022/05/03 04:42:59;;;;;;;4.50;3.35;;;;;;;8.38;96.97;100587.66;10293744;28;20038;-78
2022/05/03 04:47:59;;;;;;;6.07;3.45;;;;;;;8.49;97.05;100603.34;10292798;28;20039;-78
2022/05/03 04:53:00;;;;;;;5.40;3.47;;;;;;;8.45;97.01;100592.25;10292713;28;20039;-78
2022/05/03 04:58:01;;;;;;;6.05;3.58;;;;;;;8.48;96.74;100577.88;10292054;28;20125;-77
2022/05/03 05:03:02;;;;;;;11.35;4.13;;;;;;;7.41;96.73;100424.13;10323836;28;20038;-78
2022/05/03 05:08:07;;;;;;;6.13;4.28;;;;;;;7.50;97.03;100439.09;10373123;28;20069;-78
2022/05/03 05:13:08;;;;;;;7.55;4.05;;;;;;;8.38;96.82;100574.44;10372659;28;20050;-77
2022/05/03 05:18:09;;;;;;;5.97;3.95;;;;;;;8.60;96.90;100597.88;10353241;28;20703;-84
2022/05/03 05:23:10;;;;;;;12.00;3.35;;;;;;;8.55;96.72;100578.94;10313768;28;20042;-80
2022/05/03 05:28:11;;;;;;;4.35;3.38;;;;;;;7.82;96.25;100464.28;10318468;28;20042;-75
2022/05/03 05:33:13;;;;;;;5.95;3.50;;;;;;;8.40;96.49;100551.31;10321226;28;20038;-77
2022/05/03 05:38:15;;;;;;;4.90;2.97;;;;;;;8.76;96.09;100604.31;10326601;28;20046;-75
2022/05/03 05:43:16;;;;;;;4.75;3.55;;;;;;;8.68;95.54;100574.13;10340156;28;20137;-78
2022/05/03 05:48:17;;;;;;;5.22;4.07;;;;;;;8.15;95.46;100490.13;10331957;28;20482;-78
2022/05/03 05:53:33;;;;;;;5.80;3.63;;;;;;;8.32;95.14;100474.44;10290932;28;20099;-75
2022/05/03 05:58:34;;;;;;;7.57;3.60;;;;;;;8.88;95.04;100545.69;10269525;28;20053;-73
2022/05/03 06:03:35;;;;;;;5.10;3.58;;;;;;;8.86;94.56;100515.03;10281739;28;20590;-73
2022/05/03 06:08:37;;;;;;;6.15;3.40;;;;;;;8.96;94.38;100533.47;10276963;28;20030;-76
2022/05/03 06:13:38;;;;;;;6.70;2.90;;;;;;;9.44;94.39;100580.72;10298681;28;20148;-83
2022/05/03 06:18:39;;;;;;;5.10;3.03;;;;;;;9.38;94.02;100541.59;10327634;28;20049;-76
2022/05/03 06:23:40;;;;;;;7.25;3.50;;;;;;;9.67;93.55;100551.88;10325252;28;20081;-79
2022/05/03 06:28:42;;;;;;;5.53;3.35;;;;;;;10.13;92.41;100586.09;10316841;28;20047;-74
2022/05/03 06:33:43;;;;;;;5.43;3.58;;;;;;;10.41;92.29;100576.13;10338791;28;20565;-75
2022/05/03 06:38:44;;;;;;;7.82;3.53;;;;;;;10.54;91.32;100531.34;10327882;28;20133;-75
2022/05/03 06:43:45;;;;;;;7.70;3.50;;;;;;;11.05;89.89;100568.44;10326731;28;20144;-75
2022/05/03 06:48:46;;;;;;;8.27;3.38;;;;;;;10.80;89.54;100488.72;10326455;28;20132;-72
2022/05/03 06:53:47;;;;;;;9.68;3.38;;;;;;;11.46;89.61;100581.72;10319956;28;20050;-71
2022/05/03 06:58:47;;;;;;;5.57;2.90;;;;;;;11.42;88.09;100565.25;10353820;28;20065;-73
2022/05/03 07:03:48;;;;;;;8.43;6.82;;;;;;;11.40;88.97;100530.88;10362283;28;20045;-71
2022/05/03 07:08:49;;;;;;;13.13;5.35;;;;;;;11.60;88.35;100538.47;10353083;28;20482;-72
2022/05/03 07:13:50;;;;;;;8.38;3.05;;;;;;;11.61;87.86;100521.53;10360278;28;20066;-72
2022/05/03 07:24:11;;;;;;;8.30;3.75;;;;;;;12.13;85.56;100523.69;10376215;28;20073;-73
2022/05/03 07:29:12;;;;;;;6.43;3.50;;;;;;;12.51;85.41;100539.81;10358656;28;20034;-72
2022/05/03 07:34:13;;;;;;;4.40;3.40;;;;;;;12.19;83.71;100490.19;10358672;28;20049;-75
2022/05/03 07:39:14;;;;;;;5.13;3.40;;;;;;;11.67;84.61;100395.78;10375515;28;20580;-71
2022/05/03 07:44:15;;;;;;;8.55;3.28;;;;;;;12.42;84.15;100504.38;10375672;28;20400;-72
2022/05/03 07:49:15;;;;;;;5.18;2.80;;;;;;;10.96;84.00;100254.78;10369815;28;20107;-71
2022/05/03 07:54:16;;;;;;;6.45;3.08;;;;;;;12.23;83.30;100391.13;10357166;28;20092;-72
2022/05/03 07:59:17;;;;;;;11.20;4.15;;;;;;;13.06;82.40;100465.91;10375770;28;20049;-71
2022/05/03 08:04:18;;;;;;;7.55;3.33;;;;;;;13.14;81.82;100413.31;10356275;28;20049;-72
2022/05/03 08:09:19;;;;;;;5.05;2.65;;;;;;;12.64;79.77;100334.00;10374331;28;20060;-82
2022/05/03 08:14:20;;;;;;;5.80;2.80;;;;;;;13.56;80.00;100451.91;10373848;28;20077;-78
2022/05/03 08:19:21;;;;;;;14.77;2.95;;;;;;;13.72;78.52;100490.91;10367218;28;20576;-78
2022/05/03 08:24:25;;;;;;;6.05;2.40;;;;;;;13.94;79.06;100494.50;10368878;28;20478;-77
2022/05/03 08:29:27;;;;;;;7.30;2.85;;;;;;;14.16;77.81;100484.69;10374350;28;20490;-79
2022/05/03 08:34:29;;;;;;;5.38;2.60;;;;;;;14.07;76.20;100443.91;10356283;28;20085;-83
2022/05/03 08:44:50;;;;;;;12.98;5.20;;;;;;;14.15;74.60;100427.75;10374080;28;20042;-78
2022/05/03 08:50:00;;;;;;;4.53;3.33;;;;;;;14.46;76.59;100458.69;10373716;28;20034;-76
2022/05/03 08:55:02;;;;;;;6.20;2.60;;;;;;;14.38;75.03;100464.16;10373853;28;20053;-79
2022/05/03 09:00:05;;;;;;;4.32;2.40;;;;;;;13.10;74.78;100304.50;10372903;28;20037;-81
2022/05/03 09:05:07;;;;;;;10.10;2.40;;;;;;;13.44;75.71;100403.50;10372703;28;20386;-81
2022/05/03 09:10:18;;;;;;;5.13;2.60;;;;;;;12.41;77.89;100262.94;10373789;28;20084;-83
2022/05/03 09:15:33;;;;;;;9.60;2.60;;;;;;;12.93;77.65;100371.38;10372157;28;20061;-81
2022/05/03 09:25:54;;;;;;;8.30;2.67;;;;;;;13.30;76.23;100356.31;10372762;28;20038;-76
2022/05/03 09:30:55;;;;;;;3.95;2.28;;;;;;;12.97;76.70;100307.81;10373679;28;20398;-79
2022/05/03 09:35:55;;;;;;;6.28;2.90;;;;;;;13.78;76.68;100438.63;10370168;28;20045;-78
2022/05/03 09:41:12;;;;;;;6.15;2.38;;;;;;;13.70;75.86;100365.63;10354547;28;20052;-77
2022/05/03 09:46:12;;;;;;;8.52;2.60;;;;;;;13.38;75.14;100286.84;10371597;28;20053;-77
2022/05/03 09:51:16;;;;;;;7.07;2.58;;;;;;;13.28;73.45;100282.78;10371551;28;20502;-81
2022/05/03 09:56:18;;;;;;;6.25;2.50;;;;;;;14.59;74.28;100431.28;10371921;28;20041;-79
2022/05/03 10:01:19;;;;;;;6.97;2.58;;;;;;;14.87;72.98;100420.63;10372240;28;20405;-78
2022/05/03 10:06:20;;;;;;;4.38;2.50;;;;;;;14.94;72.27;100432.19;10372434;28;20125;-78
2022/05/03 10:11:26;;;;;;;6.55;2.40;;;;;;;14.91;73.11;100427.25;10371939;28;20046;-78
2022/05/03 10:21:55;;;;;;;7.50;2.42;;;;;;;14.37;73.74;100385.00;10371711;28;20077;-79
2022/05/03 10:27:02;;;;;;;9.23;2.80;;;;;;;14.63;72.17;100384.47;10359299;28;20057;-78
2022/05/03 10:32:05;;;;;;;3.55;2.13;;;;;;;15.24;71.30;100391.84;10378429;28;20041;-77
2022/05/03 10:37:14;;;;;;;7.63;2.37;;;;;;;16.33;65.38;100385.66;10361676;28;20069;-79
2022/05/03 10:42:15;;;;;;;7.18;2.25;;;;;;;16.67;67.44;100374.75;10379153;28;20706;-79
2022/05/03 10:47:51;;;;;;;7.60;2.45;;;;;;;16.83;64.67;100372.69;10379112;28;20445;-80
2022/05/03 10:53:06;;;;;;;7.85;3.10;;;;;;;15.30;64.57;100136.81;10378851;28;20042;-79
2022/05/03 10:58:25;;;;;;;23.48;4.10;;;;;;;16.52;63.52;100358.03;10371495;28;20410;-75
2022/05/03 11:03:26;;;;;;;9.55;3.45;;;;;;;16.38;66.49;100370.59;10378866;28;20054;-80
2022/05/03 11:08:27;;;;;;;35.85;4.35;;;;;;;16.09;66.21;100341.50;10367700;28;20037;-76
2022/05/03 11:13:41;;;;;;;11.38;3.60;;;;;;;15.93;64.58;100359.63;10365582;28;20513;-76
2022/05/03 11:18:42;;;;;;;12.05;2.92;;;;;;;15.79;67.16;100354.41;10348250;28;20077;-78
2022/05/03 11:23:48;;;;;;;18.40;3.75;;;;;;;15.65;66.70;100329.44;10373673;28;20069;-75
2022/05/03 11:28:56;;;;;;;7.53;3.33;;;;;;;15.80;66.75;100358.78;10366057;28;20054;-79
2022/05/03 11:33:58;;;;;;;7.10;3.05;;;;;;;14.75;66.32;100217.13;10364073;28;20476;-79
2022/05/03 11:39:02;;;;;;;10.35;3.65;;;;;;;15.63;67.62;100350.22;10373884;28;20067;-78
2022/05/03 11:44:03;;;;;;;;;;;;;;;15.80;66.91;100348.06;10377404;28;20037;-76
2022/05/03 11:49:07;;;;;;;6.25;2.92;;;;;;;15.48;67.64;100356.56;10362060;28;19922;-78
2022/05/03 11:59:55;;;;;;;5.32;2.65;;;;;;;15.04;68.58;100333.69;10370680;28;20050;-81
2022/05/03 12:05:21;;;;;;;13.48;2.95;;;;;;;15.06;68.11;100344.22;10359913;28;20065;-79
2022/05/03 12:10:25;;;;;;;20.92;2.80;;;;;;;14.95;68.96;100340.22;10363273;28;20046;-76
2022/05/03 12:15:28;;;;;;;4.80;2.93;;;;;;;14.37;69.16;100244.19;10363658;28;20147;-77
2022/05/03 12:20:51;;;;;;;9.38;3.03;;;;;;;14.67;68.55;100315.38;10370895;28;20280;-78
2022/05/03 12:25:55;;;;;;;4.90;2.70;;;;;;;13.84;69.19;100190.38;10367190;28;20140;-79
2022/05/03 12:30:57;;;;;;;22.80;3.63;;;;;;;13.69;69.91;100163.75;10357122;28;20282;-78
2022/05/03 12:35:59;;;;;;;5.40;2.60;;;;;;;13.93;69.64;100183.03;10412693;28;20046;-78
2022/05/03 12:41:00;;;;;;;7.20;2.90;;;;;;;14.88;69.34;100339.38;10414524;28;20072;-79
2022/05/03 12:46:06;;;;;;;7.70;2.60;;;;;;;14.87;68.01;100304.78;10414791;28;20166;-78
2022/05/03 12:51:07;;;;;;;5.88;2.50;;;;;;;14.23;68.49;100183.66;10390297;28;20137;-77
2022/05/03 13:01:27;;;;;;;25.15;3.83;;;;;;;15.39;66.49;100312.25;10365533;28;20437;-83
2022/05/03 13:06:28;;;;;;;8.57;3.60;;;;;;;15.42;65.91;100297.66;10367697;28;20046;-76
2022/05/03 13:11:30;;;;;;;6.28;3.30;;;;;;;14.51;65.47;100167.63;10366672;28;20041;-78
2022/05/03 13:16:31;;;;;;;6.30;3.00;;;;;;;15.34;66.07;100301.31;10351275;28;20062;-74
2022/05/03 13:21:35;;;;;;;8.05;3.50;;;;;;;15.29;66.35;100295.75;10367673;28;20033;-77
2022/05/03 13:26:38;;;;;;;9.30;3.22;;;;;;;13.99;65.67;100070.09;10367598;28;20100;-78
2022/05/03 13:31:40;;;;;;;9.75;3.13;;;;;;;15.43;65.69;100304.63;10365751;28;20073;-76
2022/05/03 13:42:00;;;;;;;7.20;2.97;;;;;;;14.70;65.04;100200.00;10371548;28;20037;-75
2022/05/03 13:47:02;;;;;;;9.32;3.13;;;;;;;15.22;64.87;100306.41;10372323;28;20053;-72
2022/05/03 13:52:04;;;;;;;11.95;3.80;;;;;;;13.98;66.24;100103.19;10369389;28;20048;-77
2022/05/03 13:57:05;;;;;;;10.23;3.00;;;;;;;14.12;66.24;100138.81;10359106;28;20050;-75
2022/05/03 14:02:10;;;;;;;27.10;4.22;;;;;;;15.11;67.24;100306.19;10348162;28;20079;-77
2022/05/03 14:07:12;;;;;;;4.60;2.60;;;;;;;15.03;67.07;100305.28;10374862;28;20038;-76
2022/05/03 14:12:13;;;;;;;3.75;2.47;;;;;;;14.91;67.47;100314.09;10370795;28;20050;-74
2022/05/03 14:17:14;;;;;;;10.93;3.00;;;;;;;14.87;67.93;100313.66;10377643;28;20049;-74
2022/05/03 14:22:15;;;;;;;11.13;2.83;;;;;;;13.73;67.47;100139.34;10378704;28;20133;-74
2022/05/03 14:27:16;;;;;;;3.60;2.08;;;;;;;14.55;67.85;100270.47;10379863;28;20494;-74
2022/05/03 14:32:16;;;;;;;6.55;2.42;;;;;;;14.66;68.07;100303.84;10368181;28;20037;-74
2022/05/03 14:37:17;;;;;;;13.63;3.13;;;;;;;14.07;68.46;100200.81;10378987;28;20096;-75
2022/05/03 14:42:18;;;;;;;7.68;2.63;;;;;;;14.74;69.26;100306.34;10378700;28;20046;-76
2022/05/03 14:47:20;;;;;;;9.18;2.65;;;;;;;13.52;69.98;100125.03;10376201;28;20092;-76
2022/05/03 14:52:21;;;;;;;11.70;2.85;;;;;;;14.63;70.55;100287.34;10335498;28;20449;-73
2022/05/03 15:02:57;;;;;;;4.65;3.00;;;;;;;14.29;70.68;100232.81;10337555;28;20523;-74
2022/05/03 15:08:01;;;;;;;11.60;4.15;;;;;;;14.65;70.65;100290.66;10345284;28;20132;-73
2022/05/03 15:13:04;;;;;;;7.10;4.00;;;;;;;14.24;70.54;100225.41;10376763;28;20487;-75
2022/05/03 15:18:05;;;;;;;13.65;5.40;;;;;;;14.76;70.77;100298.16;10378134;28;20049;-75
2022/05/03 15:28:26;;;;;;;22.58;5.55;;;;;;;14.59;71.44;100278.91;10375932;28;20069;-74
2022/05/03 15:33:27;;;;;;;9.27;5.68;;;;;;;14.37;72.04;100251.41;10376954;28;20532;-76
2022/05/03 15:38:27;;;;;;;8.55;5.50;;;;;;;14.26;72.45;100233.22;10366418;28;20065;-73
2022/05/03 15:43:28;;;;;;;16.45;5.90;;;;;;;14.51;72.80;100282.56;10375080;28;20054;-75
2022/05/03 15:48:29;;;;;;;19.60;7.15;;;;;;;14.43;73.68;100279.19;10346545;28;20038;-76
2022/05/03 15:53:30;;;;;;;18.42;7.20;;;;;;;14.48;74.90;100306.13;10335116;28;20122;-73
2022/05/03 15:58:32;;;;;;;10.32;6.50;;;;;;;14.41;75.37;100298.06;10334553;28;20394;-75
2022/05/03 16:03:34;;;;;;;18.00;6.50;;;;;;;14.31;75.80;100300.28;10335338;28;20092;-76
2022/05/03 16:08:35;;;;;;;12.13;7.60;;;;;;;13.95;76.91;100245.09;10354153;28;20049;-73
2022/05/03 16:13:36;;;;;;;22.23;7.82;;;;;;;14.15;78.51;100290.69;10374749;28;20072;-73
2022/05/03 16:18:36;;;;;;;17.25;7.85;;;;;;;14.02;79.21;100291.38;10375269;28;20048;-73
2022/05/03 16:23:37;;;;;;;22.25;8.45;;;;;;;13.97;79.98;100282.28;10373115;28;20053;-76
2022/05/03 16:28:38;;;;;;;12.50;8.20;;;;;;;13.97;80.47;100301.84;10374431;28;20050;-73
2022/05/03 16:33:38;;;;;;;39.58;19.38;;;;;;;13.11;81.31;100164.81;10373607;28;20046;-73
2022/05/03 16:43:59;;;;;;;675.28;386.88;;;;;;;13.93;81.84;100287.19;10372172;28;20049;-73
2022/05/03 16:49:00;;;;;;;759.95;439.98;;;;;;;13.58;82.13;100233.69;10356880;28;20038;-73
2022/05/03 16:54:01;;;;;;;520.08;281.75;;;;;;;13.67;82.37;100269.91;10368724;28;20406;-73
2022/05/03 16:59:02;;;;;;;183.02;98.25;;;;;;;13.84;81.22;100285.66;10372124;28;20564;-73
2022/05/03 17:04:03;;;;;;;168.02;95.70;;;;;;;13.04;80.36;100164.72;10372922;28;20084;-73
2022/05/03 17:09:04;;;;;;;107.45;67.03;;;;;;;13.10;80.14;100182.66;10348746;28;20058;-76
2022/05/03 17:14:06;;;;;;;97.13;63.65;;;;;;;13.76;80.93;100304.47;10369322;28;20050;-71
2022/05/03 17:19:07;;;;;;;94.43;64.10;;;;;;;13.86;80.41;100303.16;10365922;28;20042;-71
2022/05/03 17:24:09;;;;;;;79.25;58.58;;;;;;;13.08;80.49;100198.03;10365328;28;20045;-74
2022/05/03 17:29:10;;;;;;;70.43;54.35;;;;;;;13.74;81.37;100311.88;10350059;28;20041;-74
2022/05/03 17:34:11;;;;;;;71.32;56.05;;;;;;;12.89;81.00;100175.47;10367034;28;20045;-74
2022/05/03 17:39:12;;;;;;;66.45;51.85;;;;;;;12.46;81.26;100113.22;10349294;28;20049;-71
2022/05/03 17:44:13;;;;;;;141.52;84.40;;;;;;;13.65;82.19;100316.50;10365418;28;20053;-71
2022/05/03 17:49:14;;;;;;;152.25;90.30;;;;;;;13.54;82.52;100315.13;10367859;28;20469;-72
2022/05/03 17:54:15;;;;;;;466.05;276.67;;;;;;;13.40;82.65;100303.50;10363517;28;20045;-72
2022/05/03 17:59:16;;;;;;;443.27;260.77;;;;;;;13.56;82.66;100321.13;10365326;28;20096;-74
2022/05/03 18:04:17;;;;;;;631.85;428.85;;;;;;;13.06;83.39;100240.03;10368387;28;20508;-74
2022/05/03 18:09:18;;;;;;;434.30;258.98;;;;;;;13.36;83.65;100288.03;10371972;28;20041;-74
2022/05/03 18:14:19;;;;;;;304.27;176.80;;;;;;;13.27;84.39;100281.16;10370251;28;20084;-74
2022/05/03 18:19:19;;;;;;;193.93;115.75;;;;;;;13.26;84.71;100260.84;10369348;28;20041;-72
2022/05/03 18:24:20;;;;;;;139.00;85.22;;;;;;;13.38;85.50;100288.69;10368680;28;20042;-74
2022/05/03 18:29:21;;;;;;;349.25;175.77;;;;;;;12.81;85.14;100206.72;10368766;28;20041;-73
2022/05/03 18:34:22;;;;;;;130.00;77.55;;;;;;;13.38;85.76;100310.03;10369239;28;20045;-72
2022/05/03 18:39:22;;;;;;;83.93;53.20;;;;;;;13.17;86.22;100287.56;10369313;28;20482;-74
2022/05/03 18:44:25;;;;;;;155.90;87.53;;;;;;;12.43;86.13;100173.00;10366490;28;20037;-72
2022/05/03 18:49:26;;;;;;;371.88;175.15;;;;;;;13.16;85.48;100285.94;10375671;28;20132;-73
2022/05/03 18:59:46;;;;;;;140.43;79.50;;;;;;;12.83;85.01;100210.81;10375285;28;20034;-75
2022/05/03 19:04:47;;;;;;;369.10;180.77;;;;;;;12.93;84.79;100227.38;10373676;28;20041;-74
2022/05/03 19:09:48;;;;;;;383.48;220.63;;;;;;;12.97;85.03;100234.00;10376166;28;20066;-74
2022/05/03 19:14:49;;;;;;;254.48;145.35;;;;;;;11.73;84.79;100011.88;10377424;28;20085;-74
2022/05/03 19:19:50;;;;;;;405.58;242.73;;;;;;;13.27;85.69;100270.47;10376341;28;20092;-74
2022/05/03 19:35:35;;;;;;;137.05;86.80;;;;;;;13.14;85.96;100241.78;10376133;28;20085;-74
2022/05/03 19:40:39;;;;;;;185.00;97.30;;;;;;;13.24;86.44;100267.13;10376672;28;20041;-74
2022/05/03 19:45:41;;;;;;;106.00;67.20;;;;;;;13.05;86.22;100238.41;10372907;28;20041;-75
2022/05/03 19:50:43;;;;;;;99.72;64.88;;;;;;;13.20;86.52;100257.88;10367177;28;20128;-74
2022/05/03 19:55:45;;;;;;;177.43;101.32;;;;;;;11.97;86.65;100063.22;10369519;28;20050;-75
2022/05/03 20:00:47;;;;;;;248.43;133.45;;;;;;;13.13;87.83;100254.31;10346142;28;20045;-74
2022/05/03 20:05:53;;;;;;;237.63;130.07;;;;;;;12.99;88.48;100250.63;10334872;28;20054;-72
2022/05/03 20:10:54;;;;;;;194.77;108.88;;;;;;;12.88;88.39;100239.63;10335965;28;20042;-75
2022/05/03 20:15:56;;;;;;;167.80;100.38;;;;;;;12.88;88.60;100239.63;10334253;28;20058;-74
2022/05/03 20:20:57;;;;;;;96.20;57.00;;;;;;;12.89;88.31;100247.44;10334993;28;20501;-74
2022/05/03 20:25:58;;;;;;;83.40;50.38;;;;;;;13.05;87.80;100257.06;10334575;28;20053;-74
2022/05/03 20:31:00;;;;;;;60.30;43.58;;;;;;;12.98;87.98;100248.13;10334289;28;20140;-73
2022/05/03 20:36:01;;;;;;;113.65;62.28;;;;;;;12.84;88.17;100225.00;10332785;28;20494;-74
2022/05/03 20:41:04;;;;;;;63.67;39.38;;;;;;;11.20;86.71;99947.25;10365399;28;20041;-74
2022/05/03 20:46:04;;;;;;;49.25;34.08;;;;;;;11.34;85.21;99954.44;10374155;28;20049;-73
2022/05/03 20:51:06;;;;;;;47.55;29.38;;;;;;;12.34;84.66;100115.50;10372922;28;20050;-74
2022/05/03 20:56:09;;;;;;;68.80;39.20;;;;;;;13.08;83.77;100227.34;10374092;28;20456;-74
2022/05/03 21:06:30;;;;;;;51.13;33.78;;;;;;;12.58;84.08;100173.00;10373533;28;20413;-73
2022/05/03 21:11:34;;;;;;;56.33;36.83;;;;;;;12.36;83.62;100126.81;10372417;28;20108;-72
2022/05/03 21:16:35;;;;;;;36.17;28.80;;;;;;;12.92;83.57;100219.56;10373474;28;20093;-72
2022/05/03 21:21:36;;;;;;;33.78;27.85;;;;;;;12.21;83.88;100118.00;10372902;28;20076;-72
2022/05/03 21:26:36;;;;;;;36.35;27.42;;;;;;;12.89;83.78;100217.25;10372205;28;20045;-73
2022/05/03 21:31:39;;;;;;;49.70;32.47;;;;;;;12.45;83.48;100148.88;10372605;28;20049;-74
2022/05/03 21:36:41;;;;;;;53.13;33.70;;;;;;;11.47;83.33;99980.38;10372247;28;20398;-74
2022/05/03 21:41:41;;;;;;;38.05;27.88;;;;;;;12.67;83.93;100176.41;10372169;28;20478;-73
2022/05/03 21:46:42;;;;;;;39.03;27.95;;;;;;;12.87;85.07;100219.31;10370968;28;20053;-75
2022/05/03 21:51:43;;;;;;;41.75;27.40;;;;;;;12.51;85.93;100186.25;10371697;28;20128;-73
2022/05/03 21:56:44;;;;;;;32.97;26.90;;;;;;;12.41;86.04;100177.69;10371800;28;20096;-71
2022/05/03 22:01:45;;;;;;;32.03;27.02;;;;;;;12.72;86.43;100214.81;10372595;28;20042;-73
2022/05/03 22:06:45;;;;;;;35.97;26.25;;;;;;;12.33;86.63;100167.16;10370085;28;20049;-75
2022/05/03 22:11:46;;;;;;;58.90;34.38;;;;;;;11.22;86.11;99971.84;10372535;28;20076;-73
2022/05/03 22:16:47;;;;;;;47.25;31.67;;;;;;;12.14;85.12;100111.75;10370828;28;20057;-73
2022/05/03 22:21:48;;;;;;;38.85;26.83;;;;;;;12.75;84.09;100211.78;10374203;28;20432;-74
2022/05/03 22:26:48;;;;;;;80.32;40.58;;;;;;;11.76;84.16;100050.59;10379032;28;20042;-73
2022/05/03 22:31:49;;;;;;;53.53;34.90;;;;;;;12.66;84.60;100220.06;10361813;28;20041;-73
2022/05/03 22:36:51;;;;;;;56.63;33.38;;;;;;;12.21;84.64;100153.47;10378158;28;20050;-73
2022/05/03 22:41:52;;;;;;;72.80;40.03;;;;;;;11.47;84.79;100027.44;10378725;28;20443;-73
2022/05/03 22:46:54;;;;;;;44.65;29.92;;;;;;;11.75;83.98;100067.56;10378935;28;20073;-74
2022/05/03 22:51:55;;;;;;;34.83;25.88;;;;;;;12.54;83.65;100211.69;10378191;28;20426;-73
2022/05/03 22:56:56;;;;;;;41.08;28.55;;;;;;;12.53;83.55;100180.72;10378045;28;20045;-73
2022/05/03 23:01:57;;;;;;;35.47;25.92;;;;;;;11.75;83.40;100057.72;10360015;28;20038;-75
2022/05/03 23:06:57;;;;;;;39.83;28.98;;;;;;;12.19;83.08;100136.81;10377403;28;20046;-73
2022/05/03 23:11:58;;;;;;;77.22;43.50;;;;;;;12.52;83.73;100197.72;10378283;28;20046;-74
2022/05/03 23:16:59;;;;;;;36.10;26.50;;;;;;;12.23;83.83;100162.06;10378580;28;20140;-73
2022/05/03 23:22:01;;;;;;;35.75;26.23;;;;;;;12.52;84.18;100219.03;10376806;28;20068;-73
2022/05/03 23:27:02;;;;;;;27.90;24.63;;;;;;;12.12;84.72;100151.88;10377141;28;20037;-73
2022/05/03 23:32:04;;;;;;;30.10;24.08;;;;;;;11.64;84.86;100071.50;10375985;28;20072;-74
2022/05/03 23:37:05;;;;;;;26.90;22.52;;;;;;;12.30;85.50;100194.97;10377012;28;20129;-73
2022/05/03 23:42:07;;;;;;;29.20;22.40;;;;;;;12.38;85.72;100211.88;10376665;28;20044;-73
2022/05/03 23:47:09;;;;;;;30.38;21.90;;;;;;;12.40;85.50;100217.84;10377044;28;20045;-73
2022/05/03 23:52:10;;;;;;;27.83;22.05;;;;;;;12.09;85.24;100169.06;10376301;28;20041;-74
2022/05/03 23:57:11;;;;;;;22.95;18.48;;;;;;;11.28;84.98;100058.88;10376188;28;20037;-74
